createdAt,value
2024-02-29T00:01:17.288Z,50.85
2024-02-29T00:03:44.994Z,50.67
2024-02-29T00:06:12.614Z,50.86
2024-02-29T00:08:41.574Z,50.59
2024-02-29T00:11:09.181Z,50.90
2024-02-29T00:13:36.980Z,50.69
2024-02-29T00:16:04.970Z,50.60
2024-02-29T00:18:32.622Z,50.58
2024-02-29T00:21:00.242Z,51.21
2024-02-29T00:23:27.875Z,50.85
2024-02-29T00:25:56.789Z,51.06
2024-02-29T00:28:24.456Z,50.70
2024-02-29T00:30:52.079Z,50.00
2024-02-29T00:33:19.810Z,50.10
2024-02-29T00:35:49.605Z,50.11
2024-02-29T00:38:17.633Z,49.93
2024-02-29T00:40:45.701Z,49.40
2024-02-29T00:43:14.685Z,50.19
2024-02-29T00:45:42.765Z,50.48
2024-02-29T00:48:11.634Z,50.41
2024-02-29T00:50:39.428Z,50.17
2024-02-29T00:53:07.079Z,50.76
2024-02-29T00:55:34.892Z,50.52
2024-02-29T00:58:02.474Z,50.86
2024-02-29T01:00:31.742Z,49.69
2024-02-29T01:02:59.401Z,50.21
2024-02-29T01:05:26.996Z,50.36
2024-02-29T01:07:54.631Z,51.09
2024-02-29T01:10:22.242Z,52.37
2024-02-29T01:12:49.874Z,51.87
2024-02-29T01:15:17.943Z,51.36
2024-02-29T01:17:50.626Z,51.33
2024-02-29T01:20:19.492Z,51.03
2024-02-29T01:22:47.053Z,51.13
2024-02-29T01:25:14.692Z,50.70
2024-02-29T01:27:42.372Z,50.80
2024-02-29T01:30:11.044Z,51.86
2024-02-29T01:32:38.764Z,50.79
2024-02-29T01:35:09.605Z,50.79
2024-02-29T01:37:37.249Z,50.87
2024-02-29T01:40:05.578Z,51.48
2024-02-29T01:42:33.214Z,51.23
2024-02-29T01:45:00.790Z,50.73
2024-02-29T01:47:28.559Z,50.74
2024-02-29T01:49:59.244Z,50.24
2024-02-29T01:52:30.621Z,50.63
2024-02-29T01:54:58.410Z,50.58
2024-02-29T01:57:26.702Z,50.84
2024-02-29T01:59:54.292Z,51.63
2024-02-29T02:02:21.877Z,50.87
2024-02-29T02:04:49.613Z,51.37
2024-02-29T02:07:17.772Z,51.13
2024-02-29T02:09:47.392Z,50.97
2024-02-29T02:12:15.581Z,51.11
2024-02-29T02:14:43.186Z,51.24
2024-02-29T02:17:11.147Z,51.13
2024-02-29T02:19:40.511Z,51.78
2024-02-29T02:22:10.869Z,51.43
2024-02-29T02:24:38.837Z,51.85
2024-02-29T02:27:06.586Z,51.06
2024-02-29T02:29:34.145Z,50.65
2024-02-29T02:32:01.739Z,50.37
2024-02-29T02:34:29.306Z,51.61
2024-02-29T02:36:56.985Z,51.85
2024-02-29T02:39:26.243Z,51.58
2024-02-29T02:41:53.862Z,50.96
2024-02-29T02:44:21.446Z,51.61
2024-02-29T02:46:49.126Z,51.62
2024-02-29T02:49:17.012Z,51.99
2024-02-29T02:51:44.742Z,51.55
2024-02-29T02:54:12.384Z,51.21
2024-02-29T02:56:41.395Z,50.71
2024-02-29T02:59:09.006Z,51.12
2024-02-29T03:01:36.621Z,50.91
2024-02-29T03:04:05.388Z,51.02
2024-02-29T03:06:33.267Z,50.30
2024-02-29T03:09:00.881Z,51.26
2024-02-29T03:11:28.470Z,51.19
2024-02-29T03:13:58.832Z,51.03
2024-02-29T03:16:27.618Z,51.02
2024-02-29T03:18:55.477Z,51.77
2024-02-29T03:21:23.370Z,52.75
2024-02-29T03:23:50.998Z,52.24
2024-02-29T03:26:18.601Z,51.01
2024-02-29T03:28:46.201Z,50.68
2024-02-29T03:31:15.513Z,51.09
2024-02-29T03:33:43.600Z,52.00
2024-02-29T03:36:11.291Z,51.13
2024-02-29T03:38:39.090Z,52.01
2024-02-29T03:41:07.641Z,51.92
2024-02-29T03:43:36.347Z,51.44
2024-02-29T03:46:04.433Z,52.23
2024-02-29T03:48:33.424Z,51.83
2024-02-29T03:51:01.125Z,52.22
2024-02-29T03:53:28.698Z,52.11
2024-02-29T03:55:56.633Z,51.46
2024-02-29T03:58:24.499Z,51.27
2024-02-29T04:00:52.231Z,51.53
2024-02-29T04:03:20.161Z,52.13
2024-02-29T04:05:49.109Z,51.76
2024-02-29T04:08:16.848Z,51.86
2024-02-29T04:10:47.210Z,52.51
2024-02-29T04:13:14.890Z,52.10
2024-02-29T04:15:43.154Z,52.49
2024-02-29T04:18:11.443Z,51.80
2024-02-29T04:20:39.029Z,51.39
2024-02-29T04:23:08.046Z,51.10
2024-02-29T04:25:35.681Z,51.50
2024-02-29T04:28:03.975Z,51.01
2024-02-29T04:30:31.891Z,51.19
2024-02-29T04:33:01.474Z,52.16
2024-02-29T04:35:29.346Z,51.86
2024-02-29T04:37:56.970Z,50.87
2024-02-29T04:40:27.551Z,51.60
2024-02-29T04:42:55.285Z,52.04
2024-02-29T04:45:24.384Z,52.61
2024-02-29T04:47:53.210Z,51.76
2024-02-29T04:50:20.837Z,52.59
2024-02-29T04:52:48.435Z,53.39
2024-02-29T04:55:16.201Z,53.40
2024-02-29T04:57:45.248Z,52.47
2024-02-29T05:00:14.302Z,51.48
2024-02-29T05:02:41.986Z,51.41
2024-02-29T05:05:09.903Z,51.62
2024-02-29T05:07:38.620Z,52.21
2024-02-29T05:10:08.717Z,51.70
2024-02-29T05:12:36.841Z,51.80
2024-02-29T05:15:06.868Z,51.25
2024-02-29T05:17:34.542Z,51.74
2024-02-29T05:20:02.118Z,52.15
2024-02-29T05:22:29.699Z,51.42
2024-02-29T05:24:59.206Z,51.82
2024-02-29T05:27:30.583Z,52.28
2024-02-29T05:29:58.466Z,52.36
2024-02-29T05:32:28.982Z,52.55
2024-02-29T05:34:56.640Z,51.96
2024-02-29T05:37:24.898Z,51.76
2024-02-29T05:39:52.602Z,51.53
2024-02-29T05:42:22.379Z,51.84
2024-02-29T05:44:50.392Z,52.54
2024-02-29T05:47:18.087Z,52.16
2024-02-29T05:49:47.157Z,52.14
2024-02-29T05:52:15.001Z,52.89
2024-02-29T05:54:42.750Z,52.56
2024-02-29T05:57:10.485Z,52.69
2024-02-29T05:59:38.086Z,52.30
2024-02-29T06:02:06.297Z,51.95
2024-02-29T06:04:34.130Z,52.97
2024-02-29T06:07:03.374Z,52.54
2024-02-29T06:09:30.975Z,53.38
2024-02-29T06:11:58.946Z,54.61
2024-02-29T06:14:26.818Z,54.47
2024-02-29T06:16:54.422Z,53.63
2024-02-29T06:19:22.065Z,53.29
2024-02-29T06:21:50.126Z,53.91
2024-02-29T06:24:20.381Z,53.97
2024-02-29T06:26:48.349Z,53.61
2024-02-29T06:29:15.972Z,55.07
2024-02-29T06:31:44.078Z,54.57
2024-02-29T06:34:11.925Z,54.65
2024-02-29T06:36:39.851Z,54.34
2024-02-29T06:39:09.281Z,53.66
2024-02-29T06:41:39.417Z,54.87
2024-02-29T06:44:08.322Z,53.63
2024-02-29T06:46:35.919Z,54.14
2024-02-29T06:49:04.154Z,54.24
2024-02-29T06:51:33.219Z,53.48
2024-02-29T06:54:00.908Z,54.08
2024-02-29T06:56:28.468Z,53.58
2024-02-29T06:58:57.373Z,54.95
2024-02-29T07:01:25.439Z,53.96
2024-02-29T07:03:53.086Z,54.32
2024-02-29T07:06:20.953Z,54.42
2024-02-29T07:08:48.543Z,54.00
2024-02-29T07:11:16.150Z,54.03
2024-02-29T07:13:43.827Z,54.47
2024-02-29T07:16:12.821Z,53.91
2024-02-29T07:18:40.445Z,54.62
2024-02-29T07:21:08.056Z,54.20
2024-02-29T07:23:37.146Z,54.84
2024-02-29T07:26:05.385Z,54.89
2024-02-29T07:28:33.021Z,55.10
2024-02-29T07:31:00.759Z,55.61
2024-02-29T07:33:31.618Z,55.76
2024-02-29T07:35:59.218Z,55.70
2024-02-29T07:38:26.938Z,55.86
2024-02-29T07:40:54.553Z,55.72
2024-02-29T07:43:22.205Z,55.16
2024-02-29T07:45:49.892Z,56.06
2024-02-29T07:48:17.608Z,57.32
2024-02-29T07:50:46.737Z,56.13
2024-02-29T07:53:14.430Z,56.35
2024-02-29T07:55:42.101Z,55.87
2024-02-29T07:58:10.811Z,55.78
2024-02-29T08:00:39.115Z,55.67
2024-02-29T08:03:07.089Z,55.23
2024-02-29T08:05:35.669Z,55.10
2024-02-29T08:08:04.762Z,56.09
2024-02-29T08:10:32.422Z,55.66
2024-02-29T08:13:00.067Z,55.58
2024-02-29T08:15:27.705Z,55.86
2024-02-29T08:17:55.381Z,55.59
2024-02-29T08:20:26.441Z,55.86
2024-02-29T08:22:55.327Z,56.24
2024-02-29T08:25:24.990Z,55.83
2024-02-29T08:27:52.678Z,56.73
2024-02-29T08:30:20.684Z,57.04
2024-02-29T08:32:49.885Z,56.51
2024-02-29T08:35:17.764Z,57.96
2024-02-29T08:37:45.371Z,56.63
2024-02-29T08:40:13.679Z,57.22
2024-02-29T08:42:42.737Z,58.07
2024-02-29T08:45:11.235Z,58.21
2024-02-29T08:47:38.826Z,59.90
2024-02-29T08:50:07.946Z,59.85
2024-02-29T08:52:35.853Z,59.99
2024-02-29T08:55:04.442Z,60.00
2024-02-29T08:57:32.141Z,59.66
2024-02-29T09:00:01.485Z,59.23
2024-02-29T09:02:29.437Z,58.71
2024-02-29T09:04:57.046Z,58.34
2024-02-29T09:07:25.108Z,58.02
2024-02-29T09:09:52.881Z,57.46
2024-02-29T09:12:20.577Z,58.83
2024-02-29T09:14:48.434Z,58.85
2024-02-29T09:17:17.359Z,58.15
2024-02-29T09:19:45.545Z,58.03
2024-02-29T09:22:13.206Z,58.52
2024-02-29T09:24:41.018Z,57.15
2024-02-29T09:27:08.745Z,57.19
2024-02-29T09:29:36.348Z,56.16
2024-02-29T09:32:04.074Z,55.96
2024-02-29T09:34:38.342Z,55.83
2024-02-29T09:37:07.562Z,55.13
2024-02-29T09:39:35.445Z,54.34
2024-02-29T09:44:36.068Z,56.37
2024-02-29T09:47:04.396Z,57.20
2024-02-29T09:49:33.437Z,55.62
2024-02-29T09:52:01.144Z,54.60
2024-02-29T09:54:31.954Z,54.13
2024-02-29T09:56:59.744Z,52.98
2024-02-29T09:59:28.872Z,51.80
2024-02-29T10:01:56.953Z,50.66
2024-02-29T10:04:24.752Z,50.06
2024-02-29T10:06:54.235Z,51.56
2024-02-29T10:09:22.549Z,51.21
2024-02-29T10:11:50.352Z,49.79
2024-02-29T10:14:21.899Z,48.16
2024-02-29T10:16:52.802Z,47.85
2024-02-29T10:19:21.131Z,48.47
2024-02-29T10:21:49.211Z,48.11
2024-02-29T10:24:20.499Z,46.42
2024-02-29T10:26:48.248Z,45.78
2024-02-29T10:29:18.291Z,45.47
2024-02-29T10:31:46.073Z,45.73
2024-02-29T10:34:14.615Z,45.03
2024-02-29T10:36:42.359Z,43.71
2024-02-29T10:39:11.649Z,43.08
2024-02-29T10:41:42.856Z,42.85
2024-02-29T10:44:10.897Z,41.63
2024-02-29T10:46:39.403Z,44.48
2024-02-29T10:49:15.073Z,44.20
2024-02-29T10:51:45.677Z,43.67
2024-02-29T10:54:19.745Z,41.79
2024-02-29T10:56:50.547Z,41.99
2024-02-29T10:59:20.186Z,41.39
2024-02-29T11:01:49.261Z,40.55
2024-02-29T11:04:17.483Z,38.58
2024-02-29T11:06:48.242Z,40.23
2024-02-29T11:09:17.626Z,43.14
2024-02-29T11:11:46.457Z,42.04
2024-02-29T11:14:18.562Z,38.21
2024-02-29T11:16:47.881Z,36.40
2024-02-29T11:19:17.196Z,36.15
2024-02-29T11:21:44.935Z,33.85
2024-02-29T11:24:18.653Z,32.49
2024-02-29T11:26:46.258Z,32.80
2024-02-29T11:29:16.199Z,31.13
2024-02-29T11:31:45.411Z,29.62
2024-02-29T11:34:13.501Z,29.56
2024-02-29T11:36:42.114Z,28.62
2024-02-29T11:39:11.720Z,28.80
2024-02-29T11:41:39.555Z,31.88
2024-02-29T11:44:07.153Z,30.86
2024-02-29T11:46:36.058Z,30.45
2024-02-29T11:49:03.889Z,28.55
2024-02-29T11:51:31.560Z,27.99
2024-02-29T11:53:59.729Z,27.62
2024-02-29T11:56:27.745Z,25.71
2024-02-29T11:58:55.874Z,26.01
2024-02-29T12:01:24.734Z,26.12
2024-02-29T12:03:53.905Z,25.90
2024-02-29T12:06:21.964Z,24.92
2024-02-29T12:08:50.286Z,25.48
2024-02-29T12:11:18.673Z,24.97
2024-02-29T12:13:47.101Z,24.28
2024-02-29T12:16:15.611Z,24.02
2024-02-29T12:18:43.417Z,25.36
2024-02-29T12:21:12.999Z,24.87
2024-02-29T12:23:41.140Z,24.21
2024-02-29T12:26:10.851Z,24.21
2024-02-29T12:28:39.506Z,24.72
2024-02-29T12:31:08.312Z,24.30
2024-02-29T12:33:38.235Z,23.91
2024-02-29T12:36:07.180Z,23.00
2024-02-29T12:38:36.778Z,23.38
2024-02-29T12:41:06.293Z,23.62
2024-02-29T12:43:34.140Z,23.18
2024-02-29T12:46:04.326Z,23.34
2024-02-29T12:48:32.271Z,23.28
2024-02-29T12:50:59.882Z,22.33
2024-02-29T12:53:27.471Z,22.45
2024-02-29T12:55:56.457Z,22.02
2024-02-29T12:58:24.173Z,21.29
2024-02-29T13:00:51.955Z,21.59
2024-02-29T13:03:20.087Z,21.36
2024-02-29T13:05:47.765Z,20.74
2024-02-29T13:08:15.467Z,21.42
2024-02-29T13:10:43.060Z,21.40
2024-02-29T13:13:12.096Z,20.76
2024-02-29T13:15:39.731Z,21.14
2024-02-29T13:18:07.408Z,21.12
2024-02-29T13:20:35.081Z,20.82
2024-02-29T13:23:02.680Z,22.56
2024-02-29T13:25:30.810Z,22.96
2024-02-29T13:27:58.658Z,22.58
2024-02-29T13:30:27.616Z,22.10
2024-02-29T13:32:55.261Z,21.60
2024-02-29T13:35:22.851Z,21.73
2024-02-29T13:37:50.893Z,21.88
2024-02-29T13:40:18.852Z,21.40
2024-02-29T13:42:48.395Z,21.99
2024-02-29T13:45:16.698Z,21.37
2024-02-29T13:47:51.042Z,21.94
2024-02-29T13:50:19.905Z,23.66
2024-02-29T13:52:47.551Z,24.02
2024-02-29T13:55:15.608Z,23.80
2024-02-29T13:57:43.422Z,22.96
2024-02-29T14:00:12.046Z,22.12
2024-02-29T14:02:42.520Z,21.59
2024-02-29T14:05:11.591Z,21.12
2024-02-29T14:07:39.244Z,20.88
2024-02-29T14:10:08.763Z,20.81
2024-02-29T14:12:36.653Z,21.23
2024-02-29T14:15:04.662Z,20.43
2024-02-29T14:17:32.399Z,20.69
2024-02-29T14:20:00.380Z,21.61
2024-02-29T14:22:29.398Z,23.20
2024-02-29T14:24:57.016Z,23.03
2024-02-29T14:27:25.082Z,23.29
2024-02-29T14:29:52.680Z,22.48
2024-02-29T14:32:21.089Z,22.37
2024-02-29T14:34:48.818Z,21.87
2024-02-29T14:37:16.577Z,21.86
2024-02-29T14:39:46.136Z,21.97
2024-02-29T14:42:12.872Z,21.80
2024-02-29T14:44:40.462Z,21.62
2024-02-29T14:47:08.574Z,21.68
2024-02-29T14:49:36.228Z,21.99
2024-02-29T14:52:04.448Z,22.55
2024-02-29T14:54:32.202Z,22.26
2024-02-29T14:57:01.618Z,22.75
2024-02-29T14:59:29.826Z,22.92
2024-02-29T15:01:57.594Z,23.10
2024-02-29T15:04:25.320Z,23.62
2024-02-29T15:06:53.609Z,24.48
2024-02-29T15:09:21.353Z,24.68
2024-02-29T15:11:49.043Z,24.41
2024-02-29T15:14:18.410Z,25.29
2024-02-29T15:16:46.167Z,24.90
2024-02-29T15:19:13.981Z,25.20
2024-02-29T15:21:42.172Z,25.80
2024-02-29T15:24:10.106Z,26.32
2024-02-29T15:26:40.163Z,26.54
2024-02-29T15:29:08.835Z,27.17
2024-02-29T15:31:40.970Z,27.92
2024-02-29T15:34:08.827Z,28.41
2024-02-29T15:36:36.892Z,29.16
2024-02-29T15:39:05.520Z,29.40
2024-02-29T15:41:33.248Z,30.13
2024-02-29T15:44:00.833Z,30.72
2024-02-29T15:46:28.630Z,31.15
2024-02-29T15:48:57.866Z,31.61
2024-02-29T15:51:26.076Z,32.32
2024-02-29T15:53:53.707Z,32.47
2024-02-29T15:56:21.325Z,33.06
2024-02-29T15:58:48.985Z,33.32
2024-02-29T16:01:17.118Z,33.35
2024-02-29T16:03:44.758Z,33.66
2024-02-29T16:06:13.925Z,35.03
2024-02-29T16:08:41.529Z,35.16
2024-02-29T16:11:09.701Z,36.71
2024-02-29T16:13:37.464Z,37.76
2024-02-29T16:16:05.737Z,38.23
2024-02-29T16:18:33.375Z,38.21
2024-02-29T16:21:03.030Z,38.11
2024-02-29T16:23:32.023Z,38.62
2024-02-29T16:25:59.668Z,38.51
2024-02-29T16:28:27.970Z,39.06
2024-02-29T16:30:55.624Z,40.08
2024-02-29T16:33:23.399Z,41.56
2024-02-29T16:35:51.388Z,41.60
2024-02-29T16:38:19.110Z,41.73
2024-02-29T16:40:48.623Z,40.92
2024-02-29T16:43:21.368Z,41.90
2024-02-29T16:45:49.484Z,41.18
2024-02-29T16:48:17.407Z,41.16
2024-02-29T16:50:46.312Z,40.79
2024-02-29T16:53:14.270Z,41.27
2024-02-29T16:55:41.869Z,41.22
2024-02-29T16:58:10.883Z,41.42
2024-02-29T17:00:39.270Z,42.76
2024-02-29T17:03:06.953Z,42.58
2024-02-29T17:05:34.640Z,42.45
2024-02-29T17:08:02.265Z,42.90
2024-02-29T17:10:30.715Z,42.81
2024-02-29T17:12:59.382Z,42.70
2024-02-29T17:15:28.772Z,42.53
2024-02-29T17:17:56.521Z,43.63
2024-02-29T17:20:24.165Z,43.81
2024-02-29T17:22:51.711Z,44.79
2024-02-29T17:25:19.764Z,44.67
2024-02-29T17:27:47.525Z,45.60
2024-02-29T17:30:16.594Z,45.41
2024-02-29T17:32:48.293Z,44.21
2024-02-29T17:35:17.128Z,44.71
2024-02-29T17:37:45.348Z,45.31
2024-02-29T17:40:13.798Z,45.84
2024-02-29T17:42:41.629Z,44.50
2024-02-29T17:45:10.821Z,45.17
2024-02-29T17:47:41.406Z,44.90
2024-02-29T17:50:16.492Z,44.76
2024-02-29T17:52:44.678Z,44.68
2024-02-29T17:55:15.494Z,44.17
2024-02-29T17:57:43.826Z,45.61
2024-02-29T18:00:13.014Z,44.60
2024-02-29T18:02:41.527Z,44.65
2024-02-29T18:05:12.362Z,45.03
2024-02-29T18:07:46.729Z,45.23
2024-02-29T18:10:19.035Z,45.50
2024-02-29T18:12:47.281Z,44.41
2024-02-29T18:15:16.123Z,45.29
2024-02-29T18:17:45.161Z,44.98
2024-02-29T18:20:17.793Z,45.34
2024-02-29T18:22:45.635Z,45.30
2024-02-29T18:25:13.414Z,45.14
2024-02-29T18:27:41.142Z,46.09
2024-02-29T18:30:10.063Z,45.12
2024-02-29T18:32:37.750Z,45.92
2024-02-29T18:35:09.689Z,45.67
2024-02-29T18:37:40.851Z,45.71
2024-02-29T18:40:12.091Z,45.04
2024-02-29T18:42:39.787Z,45.08
2024-02-29T18:45:08.552Z,44.82
2024-02-29T18:47:36.920Z,45.24
2024-02-29T18:50:06.648Z,45.53
2024-02-29T18:52:34.767Z,44.92
2024-02-29T18:55:04.754Z,44.81
2024-02-29T18:57:32.427Z,45.79
2024-02-29T18:59:59.998Z,46.58
2024-02-29T19:02:27.619Z,47.85
2024-02-29T19:04:55.250Z,47.12
2024-02-29T19:07:26.371Z,47.18
2024-02-29T19:09:55.795Z,46.96
2024-02-29T19:12:26.321Z,46.87
2024-02-29T19:14:54.169Z,46.49
2024-02-29T19:17:22.895Z,46.45
2024-02-29T19:19:51.102Z,46.27
2024-02-29T19:22:18.836Z,47.12
2024-02-29T19:24:46.563Z,47.37
2024-02-29T19:27:14.218Z,47.53
2024-02-29T19:29:43.565Z,47.88
2024-02-29T19:32:11.175Z,47.66
2024-02-29T19:34:38.754Z,48.12
2024-02-29T19:37:06.680Z,48.73
2024-02-29T19:39:35.790Z,48.69
2024-02-29T19:42:04.188Z,48.44
2024-02-29T19:44:31.780Z,47.74
2024-02-29T19:47:00.761Z,47.90
2024-02-29T19:49:28.484Z,47.17
2024-02-29T19:51:57.575Z,47.25
2024-02-29T19:54:25.225Z,46.98
2024-02-29T19:56:52.881Z,46.73
2024-02-29T19:59:20.510Z,46.40
2024-02-29T20:01:48.208Z,47.23
2024-02-29T20:04:18.806Z,46.78
2024-02-29T20:06:48.062Z,46.56
2024-02-29T20:09:16.283Z,47.15
2024-02-29T20:11:43.962Z,47.08
2024-02-29T20:14:11.542Z,46.80
2024-02-29T20:16:39.361Z,47.10
2024-02-29T20:19:08.792Z,46.69
2024-02-29T20:21:37.825Z,47.04
2024-02-29T20:24:06.212Z,46.93
2024-02-29T20:26:34.273Z,46.78
2024-02-29T20:29:01.864Z,47.28
2024-02-29T20:31:30.152Z,47.29
2024-02-29T20:33:58.311Z,47.09
2024-02-29T20:36:26.232Z,47.09
2024-02-29T20:38:55.212Z,48.03
2024-02-29T20:41:22.882Z,47.85
2024-02-29T20:43:50.434Z,47.41
2024-02-29T20:46:18.174Z,47.15
2024-02-29T20:48:48.975Z,47.52
2024-02-29T20:51:16.683Z,48.23
2024-02-29T20:53:44.669Z,48.00
2024-02-29T20:56:13.972Z,47.73
2024-02-29T20:58:41.609Z,47.71
2024-02-29T21:01:09.442Z,48.16
2024-02-29T21:03:37.195Z,48.23
2024-02-29T21:06:05.187Z,48.60
2024-02-29T21:08:33.485Z,47.94
2024-02-29T21:11:02.057Z,47.93
2024-02-29T21:13:31.931Z,47.51
2024-02-29T21:15:59.804Z,47.61
2024-02-29T21:18:27.569Z,48.55
2024-02-29T21:20:55.448Z,48.77
2024-02-29T21:23:23.100Z,47.54
2024-02-29T21:25:50.742Z,48.49
2024-02-29T21:28:18.580Z,48.11
2024-02-29T21:30:47.707Z,48.16
2024-02-29T21:33:16.360Z,48.58
2024-02-29T21:35:44.126Z,48.61
2024-02-29T21:38:11.719Z,48.50
2024-02-29T21:40:39.377Z,48.65
2024-02-29T21:43:07.230Z,48.78
2024-02-29T21:45:34.937Z,48.24
2024-02-29T21:48:04.169Z,48.24
2024-02-29T21:50:31.879Z,49.09
2024-02-29T21:52:59.470Z,48.46
2024-02-29T21:55:27.144Z,48.77
2024-02-29T21:57:55.427Z,48.54
2024-02-29T22:00:23.993Z,49.33
2024-02-29T22:02:51.971Z,48.82
2024-02-29T22:05:21.392Z,48.94
2024-02-29T22:07:49.406Z,48.98
2024-02-29T22:10:17.096Z,49.46
2024-02-29T22:12:44.934Z,49.26
2024-02-29T22:15:13.534Z,49.46
2024-02-29T22:17:41.200Z,49.48
2024-02-29T22:20:09.572Z,49.03
2024-02-29T22:22:38.460Z,49.42
2024-02-29T22:25:06.713Z,48.95
2024-02-29T22:27:34.330Z,49.59
2024-02-29T22:30:02.002Z,50.11
2024-02-29T22:32:29.697Z,50.13
2024-02-29T22:34:57.267Z,49.82
2024-02-29T22:37:24.990Z,50.58
2024-02-29T22:39:54.055Z,50.49
2024-02-29T22:42:21.643Z,50.02
2024-02-29T22:44:49.312Z,50.17
2024-02-29T22:47:16.887Z,49.61
2024-02-29T22:49:45.166Z,50.54
2024-02-29T22:52:12.845Z,49.79
2024-02-29T22:54:40.662Z,49.86
2024-02-29T22:57:10.039Z,50.20
2024-02-29T22:59:38.194Z,49.51
2024-02-29T23:02:05.996Z,50.29
2024-02-29T23:04:33.825Z,50.31
2024-02-29T23:07:01.562Z,51.03
2024-02-29T23:09:29.263Z,50.79
2024-02-29T23:11:56.947Z,51.33
2024-02-29T23:14:25.853Z,50.61
2024-02-29T23:16:53.840Z,50.08
2024-02-29T23:19:21.651Z,50.81
2024-02-29T23:21:49.446Z,50.73
2024-02-29T23:24:17.081Z,50.67
2024-02-29T23:26:44.740Z,49.69
2024-02-29T23:29:12.447Z,49.75
2024-02-29T23:31:41.414Z,50.03
2024-02-29T23:34:09.017Z,50.48
2024-02-29T23:36:36.717Z,50.12
2024-02-29T23:39:06.242Z,50.72
2024-02-29T23:41:33.800Z,51.06
2024-02-29T23:44:01.433Z,50.64
2024-02-29T23:46:29.492Z,51.07
2024-02-29T23:48:58.507Z,50.98
2024-02-29T23:51:26.085Z,51.08
2024-02-29T23:53:54.227Z,50.90
2024-02-29T23:56:22.120Z,50.36
2024-02-29T23:58:49.745Z,50.61
